Flight Track Log - Related Links

Times and Time Zones

All times are in EST time to prevent confusion due to time zone crossing. See the N1419D flight status page for this flight to view local times or setup timezone preferences in your user account.

Time Position Orientation Groundspeed Altitude Reporting Facility
EST Latitude Longitude Course Direction KTS MPH feet Rate Location/Type
Fri 10:53:29 AM 29.1719 -81.0614 273° West 64 74 400  Level Jacksonville Center
Fri 10:53:53 AM 29.1722 -81.0686 273° West 68 78 600 835 Climbing Jacksonville Center
Fri 10:54:48 AM 29.1786 -81.0922 287° West 73 84 1,500 672 Climbing Jacksonville Center
Fri 10:55:49 AM 29.1831 -81.1136 283° West 72 83 1,900 52 Climbing Jacksonville Center
Fri 10:56:43 AM 29.1878 -81.1397 282° West 87 100 1,600 -157 Descending Jacksonville Center
Fri 10:57:44 AM 29.1964 -81.1586 298° West 69 79 1,600  Level Jacksonville Center
Fri 10:58:45 AM 29.1967 -81.1797 271° West 77 89 1,600  Level Jacksonville Center
Fri 10:59:45 AM 29.1758 -81.1944 212° Southwest 85 98 1,600  Level Jacksonville Center
Fri 11:00:46 AM 29.1553 -81.2092 212° Southwest 85 98 1,600  Level Jacksonville Center
Fri 11:01:53 AM 29.1367 -81.2283 222° Southwest 78 90 1,600 -94 Level Jacksonville Center
Fri 11:02:53 AM 29.1181 -81.2456 219° Southwest 86 99 1,400 -347 Descending Jacksonville Center
Fri 11:03:54 AM 29.0975 -81.2600 212° Southwest 85 98 900 -443 Descending Jacksonville Center
Fri 11:04:55 AM 29.0767 -81.2722 207° Southwest 89 102 500 47 Descending Jacksonville Center
Fri 11:06:02 AM 29.0583 -81.2917 239° Southwest 82 94 1,000 614 Climbing Jacksonville Center
Fri 11:07:02 AM 29.0728 -81.2936 353° North 95 109 1,800 709 Climbing Jacksonville Center
Fri 11:08:09 AM 29.1000 -81.2886 North 86 99 2,500 563 Climbing Jacksonville Center
Fri 11:09:10 AM 29.1228 -81.2858 North 88 101 3,000 246 Climbing Jacksonville Center
Fri 11:10:11 AM 29.1500 -81.2806 10° North 95 109 3,000  Level Jacksonville Center
Fri 11:11:17 AM 29.1747 -81.2683 23° Northeast 94 108 3,000  Level Jacksonville Center
Fri 11:12:12 AM 29.1953 -81.2464 43° Northeast 113 130 3,000  Level Jacksonville Center
Fri 11:13:07 AM 29.2117 -81.2225 52° Northeast 118 136 3,000  Level Jacksonville Center
Fri 11:14:01 AM 29.2303 -81.1958 51° Northeast 106 122 3,000  Level Jacksonville Center
Fri 11:15:02 AM 29.2508 -81.1694 48° Northeast 112 129 3,000  Level Jacksonville Center
Fri 11:16:03 AM 29.2714 -81.1475 43° Northeast 105 121 3,000  Level Jacksonville Center
Fri 11:17:04 AM 29.2939 -81.1211 46° Northeast 110 127 3,000  Level Jacksonville Center
Fri 11:17:58 AM 29.3147 -81.1089 27° Northeast 98 113 3,000 50 Level Jacksonville Center
Fri 11:19:05 AM 29.3356 -81.1108 355° North 75 86 3,100 47 Climbing Jacksonville Center
Fri 11:20:06 AM 29.3083 -81.1136 185° South 104 120 3,100 -47 Level Jacksonville Center
Fri 11:21:12 AM 29.3003 -81.1258 233° Southwest 72 83 3,000  Descending Jacksonville Center
Fri 11:22:13 AM 29.3233 -81.1278 356° North 79 91 3,100 49 Climbing Jacksonville Center
Fri 11:23:14 AM 29.3314 -81.1061 67° East 130 150 3,100  Level Jacksonville Center
Fri 11:24:14 AM 29.3042 -81.1019 172° South 98 113 3,100 -50 Level Jacksonville Center
Fri 11:25:15 AM 29.3000 -81.1161 251° West 64 74 3,000  Descending Jacksonville Center
Fri 11:26:16 AM 29.3150 -81.1325 316° Northwest 59 68 3,100 50 Climbing Jacksonville Center
Fri 11:27:16 AM 29.3294 -81.1228 30° Northeast 118 136 3,100 -50 Level Jacksonville Center
Fri 11:28:17 AM 29.3064 -81.1089 152° Southeast 109 125 3,000 -49 Descending Jacksonville Center
Fri 11:29:18 AM 29.2833 -81.1164 196° South 83 96 3,000  Level Jacksonville Center
Fri 11:30:19 AM 29.2600 -81.0906 136° Southeast 120 138 3,000  Level Jacksonville Center
Fri 11:31:26 AM 29.2286 -81.0817 166° South 110 127 3,000  Level Jacksonville Center
Fri 11:32:26 AM 29.2075 -81.0561 133° Southeast 124 143 3,000  Level Jacksonville Center
Fri 11:33:27 AM 29.1861 -81.0206 125° Southeast 123 142 3,000  Level Jacksonville Center
Fri 11:34:28 AM 29.1606 -80.9928 136° Southeast 112 129 3,000 -165 Level Jacksonville Center
Fri 11:35:16 AM 29.1417 -80.9789 147° Southeast 116 133 2,700 -495 Descending Jacksonville Center
Fri 11:36:17 AM 29.1142 -80.9628 153° Southeast 99 114 2,100 -516 Descending Jacksonville Center
Fri 11:37:24 AM 29.0869 -80.9467 153° Southeast 103 119 1,600 -234 Descending Jacksonville Center
Fri 11:38:25 AM 29.0636 -80.9350 156° South 94 108 1,600  Level Jacksonville Center
Fri 11:39:38 AM 29.0453 -80.9592 229° Southwest 72 83 1,600  Level Jacksonville Center
Fri 11:40:38 AM 29.0394 -80.9783 251° West 76 87 1,600  Level Jacksonville Center
Fri 11:41:39 AM 29.0519 -80.9947 311° West 73 84 1,600  Level Jacksonville Center
Fri 11:42:34 AM 29.0711 -81.0039 337° Northwest 77 89 1,600  Level Jacksonville Center
Fri 11:43:41 AM 29.0919 -81.0131 339° North 73 84 1,600 94 Level Jacksonville Center
Fri 11:44:41 AM 29.1128 -81.0150 355° North 85 98 1,800 347 Climbing Jacksonville Center
Fri 11:45:42 AM 29.1106 -80.9936 97° East 88 101 2,300 295 Climbing Jacksonville Center
Fri 11:46:43 AM 29.0833 -80.9894 172° South 110 127 2,400 218 Climbing Jacksonville Center
Fri 11:47:32 AM 29.0664 -80.9778 149° Southeast 101 116 2,700 165 Climbing Jacksonville Center
Fri 11:48:32 AM 29.0414 -80.9711 167° South 91 105 2,700 52 Level Jacksonville Center
Fri 11:49:27 AM 29.0247 -80.9714 181° South 77 89 2,800 141 Climbing Jacksonville Center
Fri 11:50:40 AM 29.0311 -80.9928 289° West 97 112 3,000 94 Climbing Jacksonville Center
Fri 11:51:35 AM 29.0411 -80.9642 68° East 118 136 3,000  Level Jacksonville Center
Fri 11:52:35 AM 29.0489 -80.9283 76° East 118 136 3,000 -50 Level Jacksonville Center
Fri 11:53:36 AM 29.0672 -80.9017 52° Northeast 105 121 2,900  Descending Jacksonville Center
Fri 11:54:31 AM 29.0878 -80.8753 48° Northeast 111 128 3,000 103 Climbing Jacksonville Center
Fri 11:55:32 AM 29.1103 -80.8511 43° Northeast 112 129 3,100  Climbing Jacksonville Center
Fri 11:56:33 AM 29.1350 -80.8292 38° Northeast 112 129 3,000 -49 Descending Jacksonville Center
Fri 11:57:34 AM 29.1600 -80.8192 19° North 96 110 3,000  Level Jacksonville Center
Fri 11:58:46 AM 29.1831 -80.8353 329° Northwest 77 89 3,000  Level Jacksonville Center
Fri 11:59:47 AM 29.2122 -80.8300 North 110 127 3,000  Level Jacksonville Center
Fri 12:00:48 PM 29.2392 -80.8150 26° Northeast 106 122 3,000  Level Jacksonville Center
Fri 12:01:49 PM 29.2639 -80.7956 34° Northeast 117 135 3,000  Level Jacksonville Center
Fri 12:02:49 PM 29.2406 -80.7722 139° Southeast 120 138 3,000  Level Jacksonville Center
Fri 12:03:38 PM 29.2175 -80.7631 161° South 109 125 3,000  Level Jacksonville Center
Fri 12:04:45 PM 29.1861 -80.7544 167° South 100 115 3,000  Level Jacksonville Center
Fri 12:05:46 PM 29.2050 -80.7658 332° Northwest 82 94 3,000  Level Jacksonville Center
Fri 12:06:47 PM 29.2322 -80.7700 352° North 91 105 3,000  Level Jacksonville Center
Fri 12:07:48 PM 29.2514 -80.7861 324° Northwest 77 89 3,000 -98 Level Jacksonville Center
Fri 12:08:49 PM 29.2558 -80.8100 282° West 91 105 2,800 -397 Descending Jacksonville Center
Fri 12:09:49 PM 29.2564 -80.8383 271° West 90 104 2,200 -595 Descending Jacksonville Center
Fri 12:10:50 PM 29.2567 -80.8669 271° West 91 105 1,600 -295 Descending Jacksonville Center
Fri 12:11:51 PM 29.2447 -80.8936 243° Southwest 90 104 1,600  Level Jacksonville Center
Fri 12:12:46 PM 29.2386 -80.9150 252° West 86 99 1,600  Level Jacksonville Center
Fri 12:13:47 PM 29.2267 -80.9439 245° Southwest 96 110 1,600  Level Jacksonville Center
Fri 12:14:48 PM 29.2144 -80.9750 246° West 101 116 1,600 -281 Level Jacksonville Center
Fri 12:15:55 PM 29.2025 -81.0039 245° Southwest 96 110 1,000 -375 Descending Jacksonville Center
Fri 12:16:56 PM 29.1883 -81.0278 236° Southwest 97 112 800 -197 Descending Jacksonville Center
Fri 12:18:00 PM 29.1763 -81.0401 222° Southwest  Level FlightAware Approximate
Fri 12:25:00 PM 29.1667 -81.0500 243° Southwest  Level FlightAware Approximate
Fri 12:26:00 PM 29.1799 -81.0581 243° Southwest  Level Estimated
Fri 12:27:00 PM 29.1799 -81.0581 243° Southwest  Level Estimated
Fri 12:28:00 PM 29.1799 -81.0581 243° Southwest  Level Estimated
Fri 12:29:00 PM 29.1799 -81.0581 243° Southwest  Level Estimated
Fri 12:30:00 PM 29.1799 -81.0581 243° Southwest  Level Estimated
Fri 12:31:00 PM 29.1799 -81.0581 243° Southwest  Level Estimated
Fri 12:32:00 PM 29.1799 -81.0581 243° Southwest  Level Estimated
Fri 12:33:00 PM 29.1799 -81.0581 243° Southwest  Level Estimated
Fri 12:34:00 PM 29.1799 -81.0581 243° Southwest  Level Estimated
Fri 12:35:00 PM 29.1799 -81.0581 243° Southwest  Level Estimated

Login

Don't have an account? Register now (free) for customized features, flight alerts, and more!